RYR2UT EKCH-EIDW
Flight info
| Callsign | RYR2UT |
|---|---|
| Flight time | 2h 0m |
| Altitude | 38000 |
| Route | ODDON L975 RIDSI DCT LESRA DCT ROPAL DCT ERDOW UL975 DESIG UL70 GUNTU Z196 LELDO M145 BAGSO BAGSO3R |
| Aircraft | B738/M-SDE3FGILRWY/SB1 |
Departure
| Time | 2026-04-24 13:16 |
|---|---|
| Airport | Copenhagen Kastrup Airport (EKCH) |
Arrival
| Time | 2026-04-24 15:17 |
|---|---|
| Airport | Dublin Airport (EIDW) |
| Time | Latitude | Longitude | Altitude | Speed | Heading |
|---|---|---|---|---|---|
| 2026-04-24 12:29 | 55.62510 | 12.65471 | 18 ft | 0 kts | 23° |
| 2026-04-24 13:03 | 55.62490 | 12.65456 | 16 ft | 4 kts | 23° |
| 2026-04-24 13:03 | 55.62470 | 12.65441 | 17 ft | 4 kts | 19° |
| 2026-04-24 13:04 | 55.62448 | 12.65437 | 16 ft | 4 kts | 321° |
| 2026-04-24 13:04 | 55.62440 | 12.65472 | 17 ft | 4 kts | 269° |
| 2026-04-24 13:04 | 55.62440 | 12.65519 | 16 ft | 3 kts | 269° |
| 2026-04-24 13:04 | 55.62440 | 12.65526 | 16 ft | 1 kts | 269° |
| 2026-04-24 13:08 | 55.62440 | 12.65525 | 16 ft | 1 kts | 269° |
| 2026-04-24 13:09 | 55.62439 | 12.65443 | 16 ft | 5 kts | 269° |
| 2026-04-24 13:09 | 55.62436 | 12.65381 | 16 ft | 5 kts | 256° |
| 2026-04-24 13:09 | 55.62425 | 12.65319 | 17 ft | 6 kts | 278° |
| 2026-04-24 13:09 | 55.62421 | 12.65228 | 16 ft | 9 kts | 231° |
| 2026-04-24 13:10 | 55.62357 | 12.65204 | 16 ft | 10 kts | 180° |
| 2026-04-24 13:10 | 55.62291 | 12.65204 | 16 ft | 9 kts | 181° |
| 2026-04-24 13:10 | 55.62223 | 12.65189 | 16 ft | 10 kts | 196° |
| 2026-04-24 13:10 | 55.62160 | 12.65125 | 16 ft | 11 kts | 214° |
| 2026-04-24 13:11 | 55.62092 | 12.65045 | 18 ft | 13 kts | 212° |
| 2026-04-24 13:11 | 55.62008 | 12.64950 | 17 ft | 16 kts | 213° |
| 2026-04-24 13:11 | 55.61903 | 12.64829 | 16 ft | 20 kts | 212° |
| 2026-04-24 13:11 | 55.61780 | 12.64688 | 18 ft | 22 kts | 212° |
| 2026-04-24 13:12 | 55.61642 | 12.64528 | 16 ft | 25 kts | 212° |
| 2026-04-24 13:12 | 55.61488 | 12.64352 | 16 ft | 27 kts | 213° |
| 2026-04-24 13:12 | 55.61322 | 12.64160 | 18 ft | 29 kts | 213° |
| 2026-04-24 13:12 | 55.61149 | 12.63961 | 16 ft | 29 kts | 213° |
| 2026-04-24 13:13 | 55.60983 | 12.63770 | 17 ft | 28 kts | 213° |
| 2026-04-24 13:13 | 55.60827 | 12.63590 | 17 ft | 26 kts | 213° |
| 2026-04-24 13:13 | 55.60681 | 12.63423 | 17 ft | 24 kts | 212° |
| 2026-04-24 13:13 | 55.60557 | 12.63243 | 16 ft | 23 kts | 221° |
| 2026-04-24 13:14 | 55.60437 | 12.63120 | 16 ft | 19 kts | 180° |
| 2026-04-24 13:14 | 55.60359 | 12.63227 | 17 ft | 14 kts | 127° |
| 2026-04-24 13:14 | 55.60350 | 12.63368 | 19 ft | 9 kts | 48° |
| 2026-04-24 13:14 | 55.60384 | 12.63416 | 17 ft | 0 kts | 46° |
| 2026-04-24 13:15 | 55.60385 | 12.63418 | 17 ft | 1 kts | 44° |
| 2026-04-24 13:15 | 55.60400 | 12.63442 | 17 ft | 5 kts | 44° |
| 2026-04-24 13:16 | 55.60504 | 12.63606 | 17 ft | 53 kts | 41° |
| 2026-04-24 13:16 | 55.60991 | 12.64359 | 18 ft | 129 kts | 41° |
| 2026-04-24 13:16 | 55.61785 | 12.65569 | 436 ft | 159 kts | 37° |
| 2026-04-24 13:16 | 55.62633 | 12.66902 | 1361 ft | 166 kts | 35° |
| 2026-04-24 13:17 | 55.63503 | 12.68280 | 2362 ft | 174 kts | 35° |
| 2026-04-24 13:17 | 55.64487 | 12.69796 | 2821 ft | 201 kts | 36° |
| 2026-04-24 13:17 | 55.65688 | 12.71265 | 3133 ft | 220 kts | 15° |
| 2026-04-24 13:17 | 55.67253 | 12.71337 | 3426 ft | 238 kts | 339° |
| 2026-04-24 13:18 | 55.68703 | 12.69834 | 4207 ft | 244 kts | 334° |
| 2026-04-24 13:18 | 55.70365 | 12.69325 | 5163 ft | 247 kts | 1° |
| 2026-04-24 13:18 | 55.72094 | 12.69451 | 6065 ft | 251 kts | 359° |
| 2026-04-24 13:18 | 55.73859 | 12.69416 | 6917 ft | 256 kts | 356° |
| 2026-04-24 13:19 | 55.75649 | 12.69289 | 7775 ft | 259 kts | 355° |
| 2026-04-24 13:19 | 55.77464 | 12.69122 | 8623 ft | 263 kts | 354° |
| 2026-04-24 13:19 | 55.79308 | 12.68937 | 9478 ft | 268 kts | 354° |
| 2026-04-24 13:19 | 55.81132 | 12.68306 | 10260 ft | 269 kts | 334° |
| 2026-04-24 13:20 | 55.82697 | 12.66341 | 10576 ft | 290 kts | 312° |
| 2026-04-24 13:20 | 55.83781 | 12.63152 | 10800 ft | 316 kts | 291° |
| 2026-04-24 13:20 | 55.84277 | 12.59266 | 11372 ft | 328 kts | 279° |
| 2026-04-24 13:20 | 55.84307 | 12.55164 | 12130 ft | 336 kts | 268° |
| 2026-04-24 13:21 | 55.83997 | 12.51032 | 12990 ft | 338 kts | 265° |
| 2026-04-24 13:21 | 55.83622 | 12.46881 | 13799 ft | 342 kts | 264° |
| 2026-04-24 13:21 | 55.83227 | 12.42683 | 14499 ft | 346 kts | 264° |
| 2026-04-24 13:21 | 55.82833 | 12.38501 | 15242 ft | 348 kts | 264° |
| 2026-04-24 13:22 | 55.82432 | 12.34191 | 15980 ft | 350 kts | 264° |
| 2026-04-24 13:22 | 55.82042 | 12.29953 | 16675 ft | 353 kts | 264° |
| 2026-04-24 13:22 | 55.81647 | 12.25620 | 17383 ft | 356 kts | 264° |
| 2026-04-24 13:22 | 55.81251 | 12.21261 | 18094 ft | 359 kts | 264° |
| 2026-04-24 13:23 | 55.80854 | 12.16874 | 18717 ft | 362 kts | 264° |
| 2026-04-24 13:23 | 55.80451 | 12.12447 | 19346 ft | 364 kts | 264° |
| 2026-04-24 13:23 | 55.80046 | 12.07995 | 19970 ft | 366 kts | 264° |
| 2026-04-24 13:23 | 55.79637 | 12.03509 | 20575 ft | 368 kts | 264° |
| 2026-04-24 13:24 | 55.79224 | 11.99003 | 21170 ft | 371 kts | 264° |
| 2026-04-24 13:24 | 55.78807 | 11.94463 | 21748 ft | 374 kts | 265° |
| 2026-04-24 13:24 | 55.78385 | 11.89888 | 22319 ft | 376 kts | 265° |
| 2026-04-24 13:24 | 55.77958 | 11.85290 | 22890 ft | 379 kts | 264° |
| 2026-04-24 13:25 | 55.77528 | 11.80662 | 23436 ft | 381 kts | 265° |
| 2026-04-24 13:25 | 55.77092 | 11.75998 | 23915 ft | 384 kts | 264° |
| 2026-04-24 13:25 | 55.76651 | 11.71308 | 24354 ft | 386 kts | 264° |
| 2026-04-24 13:25 | 55.76206 | 11.66588 | 24793 ft | 389 kts | 264° |
| 2026-04-24 13:26 | 55.75756 | 11.61841 | 25227 ft | 391 kts | 264° |
| 2026-04-24 13:26 | 55.75301 | 11.57056 | 25651 ft | 394 kts | 264° |
| 2026-04-24 13:26 | 55.74842 | 11.52247 | 26068 ft | 396 kts | 264° |
| 2026-04-24 13:26 | 55.74377 | 11.47410 | 26463 ft | 399 kts | 264° |
| 2026-04-24 13:27 | 55.73907 | 11.42535 | 26867 ft | 401 kts | 264° |
| 2026-04-24 13:27 | 55.73435 | 11.37652 | 27249 ft | 403 kts | 264° |
| 2026-04-24 13:27 | 55.72962 | 11.32791 | 27622 ft | 406 kts | 264° |
| 2026-04-24 13:27 | 55.72479 | 11.27847 | 27999 ft | 408 kts | 263° |
| 2026-04-24 13:28 | 55.72020 | 11.23164 | 28343 ft | 410 kts | 263° |
| 2026-04-24 13:28 | 55.71528 | 11.18165 | 28703 ft | 412 kts | 263° |
| 2026-04-24 13:28 | 55.71030 | 11.13135 | 29057 ft | 414 kts | 263° |
| 2026-04-24 13:28 | 55.70530 | 11.08102 | 29489 ft | 414 kts | 263° |
| 2026-04-24 13:29 | 55.70028 | 11.03078 | 30040 ft | 412 kts | 263° |
| 2026-04-24 13:29 | 55.69528 | 10.98099 | 30527 ft | 409 kts | 263° |
| 2026-04-24 13:29 | 55.69029 | 10.93145 | 30943 ft | 407 kts | 263° |
| 2026-04-24 13:29 | 55.68530 | 10.88213 | 31332 ft | 406 kts | 263° |
| 2026-04-24 13:30 | 55.68031 | 10.83289 | 31729 ft | 405 kts | 263° |
| 2026-04-24 13:30 | 55.67531 | 10.78388 | 32140 ft | 403 kts | 263° |
| 2026-04-24 13:30 | 55.67031 | 10.73502 | 32540 ft | 402 kts | 263° |
| 2026-04-24 13:30 | 55.66532 | 10.68641 | 32928 ft | 401 kts | 263° |
| 2026-04-24 13:31 | 55.66032 | 10.63793 | 33307 ft | 399 kts | 263° |
| 2026-04-24 13:31 | 55.65531 | 10.58956 | 33689 ft | 398 kts | 263° |
| 2026-04-24 13:31 | 55.65030 | 10.54138 | 34056 ft | 397 kts | 263° |
| 2026-04-24 13:31 | 55.64536 | 10.49404 | 34361 ft | 396 kts | 263° |
| 2026-04-24 13:32 | 55.64034 | 10.44609 | 34644 ft | 396 kts | 263° |
| 2026-04-24 13:32 | 55.63531 | 10.39829 | 34925 ft | 395 kts | 262° |
| 2026-04-24 13:32 | 55.63026 | 10.35049 | 35215 ft | 395 kts | 262° |
| 2026-04-24 13:32 | 55.62523 | 10.30308 | 35485 ft | 394 kts | 262° |
| 2026-04-24 13:33 | 55.62016 | 10.25545 | 35747 ft | 394 kts | 262° |
| 2026-04-24 13:33 | 55.61508 | 10.20786 | 36014 ft | 393 kts | 262° |
| 2026-04-24 13:33 | 55.60483 | 10.11230 | 36109 ft | 398 kts | 262° |
| 2026-04-24 13:34 | 55.59444 | 10.01641 | 36083 ft | 394 kts | 262° |
| 2026-04-24 13:34 | 55.58990 | 9.92107 | 36098 ft | 388 kts | 270° |
| 2026-04-24 13:35 | 55.58807 | 9.82560 | 36086 ft | 389 kts | 270° |
| 2026-04-24 13:35 | 55.58610 | 9.72999 | 36093 ft | 390 kts | 270° |
| 2026-04-24 13:36 | 55.58394 | 9.63418 | 36106 ft | 390 kts | 269° |
| 2026-04-24 13:36 | 55.58164 | 9.53816 | 36119 ft | 391 kts | 269° |
| 2026-04-24 13:37 | 55.57925 | 9.44195 | 36118 ft | 392 kts | 269° |
| 2026-04-24 13:37 | 55.57678 | 9.34544 | 36123 ft | 393 kts | 269° |
| 2026-04-24 13:38 | 55.57424 | 9.24941 | 36125 ft | 394 kts | 269° |
| 2026-04-24 13:38 | 55.57160 | 9.15265 | 36123 ft | 395 kts | 269° |
| 2026-04-24 13:39 | 55.56889 | 9.05575 | 36125 ft | 395 kts | 269° |
| 2026-04-24 13:39 | 55.56609 | 8.95876 | 36127 ft | 395 kts | 268° |
| 2026-04-24 13:40 | 55.56322 | 8.86172 | 36151 ft | 396 kts | 268° |
| 2026-04-24 13:40 | 55.56026 | 8.76455 | 36153 ft | 396 kts | 268° |
| 2026-04-24 13:41 | 55.55723 | 8.66747 | 36159 ft | 396 kts | 268° |
| 2026-04-24 13:41 | 55.55413 | 8.57043 | 36156 ft | 396 kts | 268° |
| 2026-04-24 13:42 | 55.55095 | 8.47345 | 36157 ft | 396 kts | 268° |
| 2026-04-24 13:42 | 55.54769 | 8.37636 | 36156 ft | 396 kts | 268° |
| 2026-04-24 13:43 | 55.54435 | 8.27928 | 36161 ft | 396 kts | 268° |
| 2026-04-24 13:43 | 55.54093 | 8.18213 | 36164 ft | 396 kts | 267° |
| 2026-04-24 13:44 | 55.53746 | 8.08552 | 36164 ft | 397 kts | 267° |
| 2026-04-24 13:44 | 55.53388 | 7.98831 | 36172 ft | 397 kts | 267° |
| 2026-04-24 13:45 | 55.53023 | 7.89098 | 36179 ft | 397 kts | 267° |
| 2026-04-24 13:45 | 55.52649 | 7.79359 | 36185 ft | 398 kts | 267° |
| 2026-04-24 13:46 | 55.52267 | 7.69605 | 36187 ft | 399 kts | 266° |
| 2026-04-24 13:46 | 55.51876 | 7.59830 | 36191 ft | 400 kts | 266° |
| 2026-04-24 13:47 | 55.51477 | 7.50043 | 36196 ft | 400 kts | 266° |
| 2026-04-24 13:47 | 55.51069 | 7.40236 | 36198 ft | 401 kts | 266° |
| 2026-04-24 13:48 | 55.50652 | 7.30402 | 36205 ft | 402 kts | 266° |
| 2026-04-24 13:48 | 55.50227 | 7.20558 | 36205 ft | 403 kts | 266° |
| 2026-04-24 13:49 | 55.49793 | 7.10694 | 36206 ft | 404 kts | 266° |
| 2026-04-24 13:49 | 55.49426 | 7.02488 | 36209 ft | 404 kts | 266° |
| 2026-04-24 13:50 | 55.48975 | 6.92590 | 36212 ft | 405 kts | 265° |
| 2026-04-24 13:50 | 55.48441 | 6.81072 | 36217 ft | 406 kts | 265° |
| 2026-04-24 13:51 | 55.48052 | 6.72826 | 36219 ft | 406 kts | 265° |
| 2026-04-24 13:51 | 55.47576 | 6.62903 | 36227 ft | 406 kts | 265° |
| 2026-04-24 13:52 | 55.47091 | 6.52972 | 36227 ft | 407 kts | 265° |
| 2026-04-24 13:52 | 55.46599 | 6.43045 | 36232 ft | 407 kts | 265° |
| 2026-04-24 13:53 | 55.46098 | 6.33110 | 36234 ft | 407 kts | 265° |
| 2026-04-24 13:53 | 55.45589 | 6.23171 | 36240 ft | 407 kts | 265° |
| 2026-04-24 13:54 | 55.45072 | 6.13238 | 36241 ft | 407 kts | 265° |
| 2026-04-24 13:54 | 55.44546 | 6.03305 | 36245 ft | 407 kts | 265° |
| 2026-04-24 13:55 | 55.44013 | 5.93371 | 36248 ft | 408 kts | 264° |
| 2026-04-24 13:55 | 55.43474 | 5.83492 | 36250 ft | 408 kts | 264° |
| 2026-04-24 13:56 | 55.42924 | 5.73544 | 36250 ft | 408 kts | 264° |
| 2026-04-24 13:56 | 55.42365 | 5.63595 | 36259 ft | 409 kts | 264° |
| 2026-04-24 13:57 | 55.41797 | 5.53636 | 36263 ft | 409 kts | 264° |
| 2026-04-24 13:57 | 55.41221 | 5.43677 | 36269 ft | 410 kts | 264° |
| 2026-04-24 13:58 | 55.40635 | 5.33692 | 36270 ft | 410 kts | 264° |
| 2026-04-24 13:58 | 55.40042 | 5.23714 | 36271 ft | 411 kts | 264° |
| 2026-04-24 13:59 | 55.39441 | 5.13717 | 36276 ft | 411 kts | 264° |
| 2026-04-24 13:59 | 55.38828 | 5.03711 | 36278 ft | 412 kts | 263° |
| 2026-04-24 14:00 | 55.37329 | 4.94040 | 36293 ft | 412 kts | 248° |
| 2026-04-24 14:00 | 55.35135 | 4.84727 | 36405 ft | 412 kts | 248° |
| 2026-04-24 14:01 | 55.34031 | 4.80068 | 36591 ft | 414 kts | 248° |
| 2026-04-24 14:01 | 55.32929 | 4.75390 | 36814 ft | 414 kts | 248° |
| 2026-04-24 14:01 | 55.31832 | 4.70708 | 37024 ft | 415 kts | 248° |
| 2026-04-24 14:01 | 55.30733 | 4.66007 | 37181 ft | 417 kts | 248° |
| 2026-04-24 14:02 | 55.29631 | 4.61285 | 37379 ft | 418 kts | 248° |
| 2026-04-24 14:02 | 55.28528 | 4.56564 | 37653 ft | 417 kts | 248° |
| 2026-04-24 14:02 | 55.27442 | 4.51929 | 37929 ft | 416 kts | 248° |
| 2026-04-24 14:02 | 55.26341 | 4.47234 | 38121 ft | 417 kts | 248° |
| 2026-04-24 14:03 | 55.25238 | 4.42546 | 38249 ft | 414 kts | 248° |
| 2026-04-24 14:03 | 55.24150 | 4.37929 | 38272 ft | 406 kts | 248° |
| 2026-04-24 14:03 | 55.21999 | 4.28836 | 38302 ft | 404 kts | 247° |
| 2026-04-24 14:04 | 55.19821 | 4.19662 | 38310 ft | 412 kts | 247° |
| 2026-04-24 14:04 | 55.17595 | 4.10328 | 38304 ft | 417 kts | 247° |
| 2026-04-24 14:05 | 55.15384 | 4.01091 | 38292 ft | 407 kts | 247° |
| 2026-04-24 14:05 | 55.13002 | 3.92107 | 38298 ft | 410 kts | 238° |
| 2026-04-24 14:06 | 55.09884 | 3.83650 | 38313 ft | 417 kts | 237° |
| 2026-04-24 14:06 | 55.06696 | 3.75181 | 38301 ft | 417 kts | 237° |
| 2026-04-24 14:07 | 55.03543 | 3.66765 | 38303 ft | 412 kts | 237° |
| 2026-04-24 14:07 | 55.00403 | 3.58355 | 38330 ft | 416 kts | 237° |
| 2026-04-24 14:08 | 54.97223 | 3.49848 | 38319 ft | 420 kts | 237° |
| 2026-04-24 14:08 | 54.94053 | 3.41392 | 38314 ft | 414 kts | 237° |
| 2026-04-24 14:09 | 54.90904 | 3.33024 | 38335 ft | 419 kts | 237° |
| 2026-04-24 14:09 | 54.87683 | 3.24492 | 38330 ft | 424 kts | 237° |
| 2026-04-24 14:10 | 54.84416 | 3.15868 | 38329 ft | 429 kts | 237° |
| 2026-04-24 14:10 | 54.81119 | 3.07197 | 38328 ft | 432 kts | 237° |
| 2026-04-24 14:11 | 54.77796 | 2.98487 | 38330 ft | 433 kts | 237° |
| 2026-04-24 14:12 | 54.72797 | 2.85443 | 38323 ft | 433 kts | 237° |
| 2026-04-24 14:12 | 54.69464 | 2.76785 | 38325 ft | 431 kts | 237° |
| 2026-04-24 14:13 | 54.66142 | 2.68182 | 38325 ft | 429 kts | 237° |
| 2026-04-24 14:13 | 54.62829 | 2.59635 | 38331 ft | 427 kts | 237° |
| 2026-04-24 14:14 | 54.59524 | 2.51137 | 38330 ft | 425 kts | 237° |
| 2026-04-24 14:14 | 54.54600 | 2.38532 | 38333 ft | 423 kts | 236° |
| 2026-04-24 14:15 | 54.51287 | 2.30084 | 38335 ft | 422 kts | 236° |
| 2026-04-24 14:15 | 54.48021 | 2.21786 | 38338 ft | 422 kts | 236° |
| 2026-04-24 14:16 | 54.44724 | 2.13437 | 38337 ft | 422 kts | 236° |
| 2026-04-24 14:17 | 54.39759 | 2.00916 | 38340 ft | 424 kts | 236° |
| 2026-04-24 14:17 | 54.34757 | 1.88364 | 38343 ft | 426 kts | 236° |
| 2026-04-24 14:18 | 54.31404 | 1.79986 | 38345 ft | 427 kts | 236° |
| 2026-04-24 14:18 | 54.28038 | 1.71602 | 38345 ft | 428 kts | 236° |
| 2026-04-24 14:19 | 54.24658 | 1.63215 | 38346 ft | 429 kts | 236° |
| 2026-04-24 14:19 | 54.21266 | 1.54824 | 38343 ft | 429 kts | 236° |
| 2026-04-24 14:20 | 54.17869 | 1.46447 | 38344 ft | 429 kts | 236° |
| 2026-04-24 14:20 | 54.14464 | 1.38081 | 38342 ft | 429 kts | 236° |
| 2026-04-24 14:21 | 54.11058 | 1.29740 | 38343 ft | 428 kts | 236° |
| 2026-04-24 14:21 | 54.07646 | 1.21412 | 38339 ft | 428 kts | 236° |
| 2026-04-24 14:22 | 54.04237 | 1.13117 | 38342 ft | 427 kts | 236° |
| 2026-04-24 14:23 | 53.99125 | 1.00731 | 38343 ft | 426 kts | 236° |
| 2026-04-24 14:23 | 53.95740 | 0.92557 | 38340 ft | 425 kts | 236° |
| 2026-04-24 14:24 | 53.92329 | 0.84363 | 38342 ft | 425 kts | 234° |
| 2026-04-24 14:24 | 53.88484 | 0.76746 | 38342 ft | 425 kts | 229° |
| 2026-04-24 14:25 | 53.85160 | 0.70513 | 38344 ft | 425 kts | 229° |
| 2026-04-24 14:25 | 53.80558 | 0.61860 | 38344 ft | 425 kts | 229° |
| 2026-04-24 14:26 | 53.76605 | 0.54398 | 38346 ft | 426 kts | 229° |
| 2026-04-24 14:26 | 53.72652 | 0.46945 | 38343 ft | 426 kts | 229° |
| 2026-04-24 14:27 | 53.68686 | 0.39490 | 38345 ft | 427 kts | 229° |
| 2026-04-24 14:27 | 53.64717 | 0.32054 | 38341 ft | 427 kts | 229° |
| 2026-04-24 14:28 | 53.60735 | 0.24615 | 38338 ft | 427 kts | 229° |
| 2026-04-24 14:28 | 53.56748 | 0.17187 | 38338 ft | 428 kts | 229° |
| 2026-04-24 14:29 | 53.53536 | 0.09020 | 38343 ft | 422 kts | 253° |
| 2026-04-24 14:29 | 53.52942 | 0.04201 | 38316 ft | 422 kts | 267° |
| 2026-04-24 14:29 | 53.53090 | -0.00710 | 38350 ft | 421 kts | 276° |
| 2026-04-24 14:30 | 53.53747 | -0.08903 | 38330 ft | 422 kts | 277° |
| 2026-04-24 14:30 | 53.54672 | -0.20292 | 38322 ft | 424 kts | 277° |
| 2026-04-24 14:31 | 53.55405 | -0.30132 | 38323 ft | 424 kts | 276° |
| 2026-04-24 14:31 | 53.56112 | -0.39997 | 38325 ft | 425 kts | 276° |
| 2026-04-24 14:32 | 53.56810 | -0.49880 | 38320 ft | 426 kts | 276° |
| 2026-04-24 14:32 | 53.57505 | -0.59784 | 38320 ft | 426 kts | 276° |
| 2026-04-24 14:33 | 53.58191 | -0.69693 | 38317 ft | 426 kts | 276° |
| 2026-04-24 14:33 | 53.58872 | -0.79604 | 38314 ft | 426 kts | 276° |
| 2026-04-24 14:34 | 53.59545 | -0.89511 | 38310 ft | 426 kts | 276° |
| 2026-04-24 14:34 | 53.60212 | -0.99420 | 38311 ft | 426 kts | 277° |
| 2026-04-24 14:35 | 53.60667 | -1.09344 | 38301 ft | 426 kts | 268° |
| 2026-04-24 14:35 | 53.59814 | -1.19198 | 38306 ft | 426 kts | 261° |
| 2026-04-24 14:36 | 53.58810 | -1.29014 | 38311 ft | 425 kts | 261° |
| 2026-04-24 14:36 | 53.57829 | -1.38824 | 38306 ft | 425 kts | 262° |
| 2026-04-24 14:37 | 53.56859 | -1.48568 | 38316 ft | 425 kts | 262° |
| 2026-04-24 14:37 | 53.55871 | -1.58368 | 38317 ft | 425 kts | 262° |
| 2026-04-24 14:38 | 53.54873 | -1.68171 | 38299 ft | 425 kts | 262° |
| 2026-04-24 14:38 | 53.53871 | -1.77971 | 38308 ft | 425 kts | 262° |
| 2026-04-24 14:39 | 53.52909 | -1.87762 | 38299 ft | 424 kts | 266° |
| 2026-04-24 14:39 | 53.52981 | -1.95957 | 38313 ft | 421 kts | 276° |
| 2026-04-24 14:40 | 53.53588 | -2.05757 | 38307 ft | 421 kts | 277° |
| 2026-04-24 14:40 | 53.54183 | -2.15565 | 38298 ft | 422 kts | 277° |
| 2026-04-24 14:41 | 53.54741 | -2.25385 | 38291 ft | 422 kts | 276° |
| 2026-04-24 14:41 | 53.55278 | -2.35207 | 38296 ft | 421 kts | 276° |
| 2026-04-24 14:42 | 53.55805 | -2.45023 | 38296 ft | 421 kts | 276° |
| 2026-04-24 14:42 | 53.56325 | -2.54835 | 38290 ft | 421 kts | 276° |
| 2026-04-24 14:43 | 53.56838 | -2.64641 | 38296 ft | 421 kts | 276° |
| 2026-04-24 14:43 | 53.57342 | -2.74442 | 38298 ft | 420 kts | 276° |
| 2026-04-24 14:44 | 53.57823 | -2.84190 | 38292 ft | 420 kts | 276° |
| 2026-04-24 14:44 | 53.58293 | -2.93989 | 38290 ft | 420 kts | 276° |
| 2026-04-24 14:45 | 53.58758 | -3.03784 | 38291 ft | 420 kts | 276° |
| 2026-04-24 14:45 | 53.59250 | -3.13562 | 38291 ft | 419 kts | 276° |
| 2026-04-24 14:46 | 53.60169 | -3.23207 | 38301 ft | 417 kts | 283° |
| 2026-04-24 14:46 | 53.61386 | -3.32756 | 38292 ft | 417 kts | 282° |
| 2026-04-24 14:46 | 53.61992 | -3.37565 | 37860 ft | 422 kts | 282° |
| 2026-04-24 14:47 | 53.62586 | -3.42375 | 37541 ft | 416 kts | 282° |
| 2026-04-24 14:47 | 53.63167 | -3.47124 | 37118 ft | 412 kts | 282° |
| 2026-04-24 14:47 | 53.63738 | -3.51830 | 36732 ft | 408 kts | 282° |
| 2026-04-24 14:47 | 53.64302 | -3.56498 | 36340 ft | 404 kts | 282° |
| 2026-04-24 14:48 | 53.64859 | -3.61114 | 35947 ft | 400 kts | 282° |
| 2026-04-24 14:48 | 53.65440 | -3.65687 | 35448 ft | 400 kts | 284° |
| 2026-04-24 14:48 | 53.66100 | -3.70237 | 35032 ft | 398 kts | 285° |
| 2026-04-24 14:48 | 53.66780 | -3.74739 | 34629 ft | 395 kts | 285° |
| 2026-04-24 14:49 | 53.67455 | -3.79221 | 34231 ft | 393 kts | 285° |
| 2026-04-24 14:49 | 53.68116 | -3.83671 | 33796 ft | 390 kts | 285° |
| 2026-04-24 14:49 | 53.68757 | -3.88043 | 33391 ft | 387 kts | 285° |
| 2026-04-24 14:49 | 53.69395 | -3.92446 | 33004 ft | 384 kts | 284° |
| 2026-04-24 14:50 | 53.70025 | -3.96812 | 32619 ft | 381 kts | 284° |
| 2026-04-24 14:50 | 53.70647 | -4.01138 | 32254 ft | 378 kts | 284° |
| 2026-04-24 14:50 | 53.71264 | -4.05439 | 31893 ft | 375 kts | 284° |
| 2026-04-24 14:50 | 53.71782 | -4.09740 | 31520 ft | 374 kts | 277° |
| 2026-04-24 14:51 | 53.71981 | -4.14107 | 31133 ft | 372 kts | 274° |
| 2026-04-24 14:51 | 53.72121 | -4.18455 | 30763 ft | 370 kts | 274° |
| 2026-04-24 14:51 | 53.72255 | -4.22796 | 30402 ft | 368 kts | 274° |
| 2026-04-24 14:51 | 53.72395 | -4.27098 | 29987 ft | 366 kts | 274° |
| 2026-04-24 14:52 | 53.72541 | -4.31376 | 29582 ft | 364 kts | 274° |
| 2026-04-24 14:52 | 53.72691 | -4.35619 | 29221 ft | 360 kts | 274° |
| 2026-04-24 14:52 | 53.72840 | -4.39822 | 28839 ft | 357 kts | 274° |
| 2026-04-24 14:52 | 53.72986 | -4.43986 | 28470 ft | 354 kts | 274° |
| 2026-04-24 14:53 | 53.73130 | -4.48138 | 27969 ft | 356 kts | 274° |
| 2026-04-24 14:53 | 53.73274 | -4.52301 | 27589 ft | 354 kts | 274° |
| 2026-04-24 14:53 | 53.73416 | -4.56436 | 27208 ft | 352 kts | 274° |
| 2026-04-24 14:53 | 53.73556 | -4.60550 | 26840 ft | 350 kts | 274° |
| 2026-04-24 14:54 | 53.73694 | -4.64657 | 26477 ft | 349 kts | 274° |
| 2026-04-24 14:54 | 53.73829 | -4.68738 | 26123 ft | 348 kts | 274° |
| 2026-04-24 14:54 | 53.73964 | -4.72806 | 25769 ft | 346 kts | 274° |
| 2026-04-24 14:54 | 53.74097 | -4.76859 | 25424 ft | 345 kts | 274° |
| 2026-04-24 14:55 | 53.74184 | -4.79538 | 25181 ft | 345 kts | 274° |
| 2026-04-24 14:55 | 53.74358 | -4.84944 | 24601 ft | 347 kts | 274° |
| 2026-04-24 14:55 | 53.74494 | -4.89067 | 24077 ft | 353 kts | 274° |
| 2026-04-24 14:55 | 53.74632 | -4.93211 | 23622 ft | 354 kts | 274° |
| 2026-04-24 14:56 | 53.74769 | -4.97363 | 23222 ft | 352 kts | 274° |
| 2026-04-24 14:56 | 53.74904 | -5.01482 | 22848 ft | 350 kts | 273° |
| 2026-04-24 14:56 | 53.75036 | -5.05579 | 22489 ft | 348 kts | 273° |
| 2026-04-24 14:56 | 53.75165 | -5.09652 | 22140 ft | 346 kts | 273° |
| 2026-04-24 14:57 | 53.75123 | -5.13691 | 21787 ft | 343 kts | 263° |
| 2026-04-24 14:57 | 53.74642 | -5.17610 | 21449 ft | 340 kts | 252° |
| 2026-04-24 14:57 | 53.73891 | -5.21392 | 21103 ft | 338 kts | 250° |
| 2026-04-24 14:57 | 53.73111 | -5.25118 | 20760 ft | 336 kts | 249° |
| 2026-04-24 14:58 | 53.72332 | -5.28834 | 20429 ft | 335 kts | 249° |
| 2026-04-24 14:58 | 53.71565 | -5.32538 | 20088 ft | 333 kts | 250° |
| 2026-04-24 14:58 | 53.70809 | -5.36224 | 19766 ft | 332 kts | 250° |
| 2026-04-24 14:58 | 53.70061 | -5.39896 | 19431 ft | 330 kts | 250° |
| 2026-04-24 14:59 | 53.69315 | -5.43558 | 19100 ft | 329 kts | 250° |
| 2026-04-24 14:59 | 53.68571 | -5.47203 | 18768 ft | 328 kts | 250° |
| 2026-04-24 14:59 | 53.68039 | -5.50940 | 18386 ft | 330 kts | 263° |
| 2026-04-24 14:59 | 53.67996 | -5.54798 | 18027 ft | 329 kts | 270° |
| 2026-04-24 15:00 | 53.68071 | -5.58644 | 17665 ft | 327 kts | 271° |
| 2026-04-24 15:00 | 53.68160 | -5.62426 | 17328 ft | 326 kts | 271° |
| 2026-04-24 15:00 | 53.68249 | -5.66231 | 16992 ft | 324 kts | 271° |
| 2026-04-24 15:00 | 53.68330 | -5.70011 | 16662 ft | 322 kts | 270° |
| 2026-04-24 15:01 | 53.68404 | -5.73783 | 16333 ft | 320 kts | 270° |
| 2026-04-24 15:01 | 53.68473 | -5.77524 | 16007 ft | 319 kts | 270° |
| 2026-04-24 15:01 | 53.68538 | -5.81252 | 15688 ft | 317 kts | 270° |
| 2026-04-24 15:01 | 53.68599 | -5.84967 | 15363 ft | 316 kts | 270° |
| 2026-04-24 15:02 | 53.68658 | -5.88662 | 15047 ft | 315 kts | 269° |
| 2026-04-24 15:02 | 53.68715 | -5.92343 | 14731 ft | 314 kts | 269° |
| 2026-04-24 15:02 | 53.68771 | -5.96015 | 14412 ft | 313 kts | 269° |
| 2026-04-24 15:02 | 53.68825 | -5.99682 | 14090 ft | 312 kts | 269° |
| 2026-04-24 15:03 | 53.68878 | -6.03339 | 13739 ft | 311 kts | 269° |
| 2026-04-24 15:03 | 53.68929 | -6.06982 | 13392 ft | 310 kts | 269° |
| 2026-04-24 15:03 | 53.68980 | -6.10612 | 13060 ft | 309 kts | 269° |
| 2026-04-24 15:03 | 53.69028 | -6.14220 | 12738 ft | 307 kts | 269° |
| 2026-04-24 15:04 | 53.69076 | -6.17818 | 12418 ft | 306 kts | 269° |
| 2026-04-24 15:04 | 53.69122 | -6.21395 | 12098 ft | 304 kts | 269° |
| 2026-04-24 15:04 | 53.69167 | -6.24956 | 11784 ft | 303 kts | 268° |
| 2026-04-24 15:04 | 53.69211 | -6.28504 | 11475 ft | 302 kts | 268° |
| 2026-04-24 15:05 | 53.69254 | -6.32051 | 11163 ft | 303 kts | 268° |
| 2026-04-24 15:05 | 53.69296 | -6.35602 | 10846 ft | 303 kts | 268° |
| 2026-04-24 15:05 | 53.69336 | -6.39153 | 10491 ft | 304 kts | 268° |
| 2026-04-24 15:05 | 53.69376 | -6.42688 | 10278 ft | 299 kts | 268° |
| 2026-04-24 15:06 | 53.69413 | -6.46198 | 9948 ft | 299 kts | 268° |
| 2026-04-24 15:06 | 53.69452 | -6.49695 | 9617 ft | 297 kts | 268° |
| 2026-04-24 15:06 | 53.69488 | -6.53169 | 9328 ft | 296 kts | 269° |
| 2026-04-24 15:06 | 53.69524 | -6.56633 | 9029 ft | 294 kts | 268° |
| 2026-04-24 15:07 | 53.69556 | -6.60077 | 8740 ft | 293 kts | 268° |
| 2026-04-24 15:07 | 53.69589 | -6.63476 | 8575 ft | 287 kts | 267° |
| 2026-04-24 15:07 | 53.69580 | -6.66750 | 8433 ft | 278 kts | 260° |
| 2026-04-24 15:07 | 53.68949 | -6.69693 | 8330 ft | 261 kts | 231° |
| 2026-04-24 15:08 | 53.67682 | -6.71723 | 8184 ft | 248 kts | 206° |
| 2026-04-24 15:08 | 53.66090 | -6.72707 | 7934 ft | 242 kts | 187° |
| 2026-04-24 15:08 | 53.64423 | -6.72756 | 7669 ft | 239 kts | 167° |
| 2026-04-24 15:08 | 53.62826 | -6.71993 | 7414 ft | 238 kts | 160° |
| 2026-04-24 15:09 | 53.61265 | -6.71057 | 7154 ft | 238 kts | 159° |
| 2026-04-24 15:09 | 53.59707 | -6.70112 | 6894 ft | 238 kts | 159° |
| 2026-04-24 15:09 | 53.58147 | -6.69181 | 6641 ft | 238 kts | 160° |
| 2026-04-24 15:09 | 53.56582 | -6.68255 | 6357 ft | 238 kts | 160° |
| 2026-04-24 15:10 | 53.55018 | -6.67337 | 6112 ft | 237 kts | 160° |
| 2026-04-24 15:10 | 53.53395 | -6.66908 | 5809 ft | 239 kts | 181° |
| 2026-04-24 15:10 | 53.51745 | -6.67175 | 5603 ft | 238 kts | 184° |
| 2026-04-24 15:10 | 53.50086 | -6.67453 | 5168 ft | 241 kts | 183° |
| 2026-04-24 15:11 | 53.48426 | -6.67701 | 4822 ft | 236 kts | 179° |
| 2026-04-24 15:11 | 53.46940 | -6.67001 | 4753 ft | 215 kts | 141° |
| 2026-04-24 15:11 | 53.46139 | -6.65008 | 4548 ft | 208 kts | 106° |
| 2026-04-24 15:11 | 53.45866 | -6.62647 | 4310 ft | 208 kts | 105° |
| 2026-04-24 15:12 | 53.45590 | -6.60271 | 4045 ft | 207 kts | 102° |
| 2026-04-24 15:12 | 53.45277 | -6.55643 | 3526 ft | 192 kts | 99° |
| 2026-04-24 15:12 | 53.45138 | -6.53457 | 3258 ft | 185 kts | 98° |
| 2026-04-24 15:13 | 53.45026 | -6.51350 | 3068 ft | 177 kts | 99° |
| 2026-04-24 15:13 | 53.44910 | -6.49354 | 2814 ft | 164 kts | 100° |
| 2026-04-24 15:13 | 53.44803 | -6.47507 | 2567 ft | 152 kts | 98° |
| 2026-04-24 15:13 | 53.44706 | -6.45711 | 2290 ft | 159 kts | 97° |
| 2026-04-24 15:14 | 53.44628 | -6.43908 | 2150 ft | 157 kts | 99° |
| 2026-04-24 15:14 | 53.44506 | -6.42103 | 1933 ft | 153 kts | 101° |
| 2026-04-24 15:14 | 53.44400 | -6.40358 | 1754 ft | 147 kts | 99° |
| 2026-04-24 15:14 | 53.44307 | -6.38669 | 1597 ft | 146 kts | 97° |
| 2026-04-24 15:15 | 53.44211 | -6.36971 | 1338 ft | 140 kts | 100° |
| 2026-04-24 15:15 | 53.44122 | -6.35372 | 1127 ft | 136 kts | 97° |
| 2026-04-24 15:15 | 53.44033 | -6.33803 | 946 ft | 136 kts | 96° |
| 2026-04-24 15:15 | 53.43940 | -6.32214 | 776 ft | 138 kts | 95° |
| 2026-04-24 15:16 | 53.43859 | -6.30594 | 567 ft | 142 kts | 95° |
| 2026-04-24 15:16 | 53.43764 | -6.28957 | 372 ft | 141 kts | 95° |
| 2026-04-24 15:16 | 53.43675 | -6.27331 | 221 ft | 137 kts | 94° |
| 2026-04-24 15:16 | 53.43596 | -6.25908 | 213 ft | 100 kts | 95° |
| 2026-04-24 15:17 | 53.43539 | -6.25263 | 211 ft | 34 kts | 116° |
| 2026-04-24 15:17 | 53.43453 | -6.25016 | 210 ft | 17 kts | 122° |
| 2026-04-24 15:17 | 53.43384 | -6.25048 | 210 ft | 13 kts | 257° |
| 2026-04-24 15:17 | 53.43388 | -6.25194 | 218 ft | 13 kts | 274° |
| 2026-04-24 15:18 | 53.43396 | -6.25338 | 213 ft | 12 kts | 276° |
| 2026-04-24 15:18 | 53.43403 | -6.25478 | 212 ft | 12 kts | 275° |
| 2026-04-24 15:18 | 53.43402 | -6.25614 | 210 ft | 12 kts | 246° |
| 2026-04-24 15:18 | 53.43331 | -6.25635 | 213 ft | 12 kts | 158° |
| 2026-04-24 15:19 | 53.43258 | -6.25581 | 211 ft | 11 kts | 156° |
| 2026-04-24 15:19 | 53.43188 | -6.25530 | 212 ft | 11 kts | 156° |
| 2026-04-24 15:19 | 53.43116 | -6.25475 | 213 ft | 12 kts | 156° |
| 2026-04-24 15:19 | 53.43034 | -6.25418 | 213 ft | 14 kts | 157° |
| 2026-04-24 15:20 | 53.42951 | -6.25332 | 213 ft | 15 kts | 113° |
| 2026-04-24 15:20 | 53.42961 | -6.25188 | 210 ft | 12 kts | 84° |
| 2026-04-24 15:20 | 53.42955 | -6.25049 | 218 ft | 12 kts | 94° |
| 2026-04-24 15:20 | 53.42962 | -6.24958 | 216 ft | 5 kts | 40° |
| 2026-04-24 15:21 | 53.42996 | -6.24945 | 210 ft | 5 kts | 6° |
| 2026-04-24 15:21 | 53.43008 | -6.24943 | 210 ft | 0 kts | 5° |